Atlantic Island — C4VM2 — position and weather

sailwx.info

Track history (hours):
 
Tides and Currents Weather Stations Pressure Air Temp Water Temp Dewpoint Dewpoint Depression Visibility Wind Speed Wind Dir Waves Ship Positions

Atlantic Island

Last reported at 2017-Apr-22 18:36 UTC. Time now 2017-Apr-27 18:54 UTC.
Position N 35°54' W 005°51'.

Length 95 m; draft 5.7 m.

Type: Cargo ship. MMSI: 210754000.

Date/timePositionNaut miles runAvg speedWind from/ knotsBaromVisibWave heightAir tempDewpointWater temp
2017-Apr-22 18:36N 35°54' W 005°51'3 9.7
2017-Apr-22 18:19N 35°56' W 005°48'3 9.8
2017-Apr-22 17:58N 35°57' W 005°44'5 9.9
2017-Apr-22 17:30N 35°57' W 005°38'5 9.4
2017-Apr-22 17:01N 35°58' W 005°33'5 9.1
2017-Apr-22 16:30N 35°59' W 005°27'510.7
2017-Apr-22 16:00N 36°00' W 005°21'5 9.6
2017-Apr-22 15:30N 36°01' W 005°15'5 9.2
2017-Apr-22 15:00N 36°02' W 005°09'6 9.2
2017-Apr-22 14:22N 36°03' W 005°02'216 9.0
2017-Apr-21 14:26N 37°23' W 000°51'16 9.8
2017-Apr-21 12:51N 37°33' W 000°37'4 9.5
2017-Apr-21 12:25N 37°36' W 000°33'4 9.3
2017-Apr-21 12:00N 37°39' W 000°31'5 9.2
2017-Apr-21 11:30N 37°43' W 000°27'103 7.6
2017-Apr-20 21:55N 39°26' W 000°18'2 4.1
2017-Apr-20 21:30N 39°27' W 000°19'0 0.0
2017-Apr-20 21:00N 39°27' W 000°19'0 0.0
2017-Apr-20 20:16N 39°27' W 000°19'0 0.0
2017-Apr-20 19:59N 39°27' W 000°19'0 0.0
2017-Apr-20 19:05N 39°27' W 000°19'0 0.0
2017-Apr-20 18:59N 39°27' W 000°19'0 0.0
2017-Apr-20 18:25N 39°27' W 000°19'0 0.0
2017-Apr-20 17:58N 39°27' W 000°19'0 0.0
2017-Apr-20 17:28N 39°27' W 000°19'0 0.0
2017-Apr-20 16:58N 39°27' W 000°19'0 0.0
2017-Apr-20 16:28N 39°27' W 000°19'0 0.0
2017-Apr-20 15:58N 39°27' W 000°19'0 0.0
2017-Apr-20 15:16N 39°27' W 000°19'0 0.0
2017-Apr-20 14:55N 39°27' W 000°19'0 0.0
2017-Apr-20 14:28N 39°27' W 000°19'0 0.0
2017-Apr-20 13:28N 39°27' W 000°19'0 0.0
2017-Apr-20 12:58N 39°27' W 000°19'0 0.0
2017-Apr-20 12:28N 39°27' W 000°19'0 0.0
2017-Apr-20 11:58N 39°27' W 000°19'0 0.0
2017-Apr-20 11:25N 39°27' W 000°19'0 0.0
2017-Apr-20 10:58N 39°27' W 000°19'0 0.0
2017-Apr-20 10:28N 39°27' W 000°19'0 0.0
2017-Apr-20 09:57N 39°27' W 000°19'0 0.0
2017-Apr-20 09:00N 39°27' W 000°19'0 0.0
2017-Apr-20 08:24N 39°27' W 000°19'0 0.0
2017-Apr-20 07:00N 39°27' W 000°19'0 0.0
2017-Apr-20 06:12N 39°27' W 000°19'0 0.0
2017-Apr-20 06:00N 39°27' W 000°19'0 0.0
2017-Apr-20 05:30N 39°27' W 000°19'0 0.0
2017-Apr-20 04:42N 39°27' W 000°19'0 0.1
2017-Apr-20 04:30N 39°27' W 000°19'0 0.0
2017-Apr-20 04:00N 39°27' W 000°19'0 0.0
2017-Apr-20 03:30N 39°27' W 000°19'0 0.0
2017-Apr-20 03:00N 39°27' W 000°19'0 0.3
2017-Apr-20 02:30N 39°27' W 000°19'0 0.3
2017-Apr-20 02:00N 39°27' W 000°19'0 0.0
2017-Apr-20 01:30N 39°27' W 000°19'0 0.0
2017-Apr-20 01:00N 39°27' W 000°19'0 0.0
2017-Apr-20 00:27N 39°27' W 000°19'0 0.0
2017-Apr-19 23:48N 39°27' W 000°19'0 0.0
2017-Apr-19 23:21N 39°27' W 000°19'0 0.0
2017-Apr-19 23:00N 39°27' W 000°19'0 0.0
2017-Apr-19 22:27N 39°27' W 000°19'0 0.0
2017-Apr-19 21:48N 39°27' W 000°19'0 0.0
2017-Apr-19 20:18N 39°27' W 000°19'0 0.0
2017-Apr-19 19:54N 39°27' W 000°19'0 0.0
2017-Apr-19 19:30N 39°27' W 000°19'0 0.0
2017-Apr-19 19:00N 39°27' W 000°19'0 0.1
2017-Apr-19 18:31N 39°27' W 000°19'1 1.8
2017-Apr-19 18:00N 39°26' W 000°18'3 5.7
2017-Apr-19 17:30N 39°28' W 000°15'510.6
2017-Apr-19 17:01N 39°33' W 000°13'  
2017-Apr-13 22:23N 39°37' W 000°11'0 0.0
2017-Apr-13 21:05N 39°37' W 000°11'0 0.0
2017-Apr-13 19:32N 39°37' W 000°11'0 0.0
2017-Apr-13 19:17N 39°37' W 000°11'  
Track history (hours):
 
Tides and Currents Weather Stations Pressure Air Temp Water Temp Dewpoint Dewpoint Depression Visibility Wind Speed Wind Dir Waves Ship Positions

Atlantic Island

Last reported at 2017-Apr-22 18:36 UTC. Time now 2017-Apr-27 18:54 UTC.
Position N 35°54' W 005°51'.

Length 95 m; draft 5.7 m.

Type: Cargo ship. MMSI: 210754000.

Date/timePositionNaut miles runAvg speedWind from/ knotsBaromVisibWave heightAir tempDewpointWater temp
2017-Apr-22 18:36N 35°54' W 005°51'3 9.7
2017-Apr-22 18:19N 35°56' W 005°48'3 9.8
2017-Apr-22 17:58N 35°57' W 005°44'5 9.9
2017-Apr-22 17:30N 35°57' W 005°38'5 9.4
2017-Apr-22 17:01N 35°58' W 005°33'5 9.1
2017-Apr-22 16:30N 35°59' W 005°27'510.7
2017-Apr-22 16:00N 36°00' W 005°21'5 9.6
2017-Apr-22 15:30N 36°01' W 005°15'5 9.2
2017-Apr-22 15:00N 36°02' W 005°09'6 9.2
2017-Apr-22 14:22N 36°03' W 005°02'216 9.0
2017-Apr-21 14:26N 37°23' W 000°51'16 9.8
2017-Apr-21 12:51N 37°33' W 000°37'4 9.5
2017-Apr-21 12:25N 37°36' W 000°33'4 9.3
2017-Apr-21 12:00N 37°39' W 000°31'5 9.2
2017-Apr-21 11:30N 37°43' W 000°27'103 7.6
2017-Apr-20 21:55N 39°26' W 000°18'2 4.1
2017-Apr-20 21:30N 39°27' W 000°19'0 0.0
2017-Apr-20 21:00N 39°27' W 000°19'0 0.0
2017-Apr-20 20:16N 39°27' W 000°19'0 0.0
2017-Apr-20 19:59N 39°27' W 000°19'0 0.0
2017-Apr-20 19:05N 39°27' W 000°19'0 0.0
2017-Apr-20 18:59N 39°27' W 000°19'0 0.0
2017-Apr-20 18:25N 39°27' W 000°19'0 0.0
2017-Apr-20 17:58N 39°27' W 000°19'0 0.0
2017-Apr-20 17:28N 39°27' W 000°19'0 0.0
2017-Apr-20 16:58N 39°27' W 000°19'0 0.0
2017-Apr-20 16:28N 39°27' W 000°19'0 0.0
2017-Apr-20 15:58N 39°27' W 000°19'0 0.0
2017-Apr-20 15:16N 39°27' W 000°19'0 0.0
2017-Apr-20 14:55N 39°27' W 000°19'0 0.0
2017-Apr-20 14:28N 39°27' W 000°19'0 0.0
2017-Apr-20 13:28N 39°27' W 000°19'0 0.0
2017-Apr-20 12:58N 39°27' W 000°19'0 0.0
2017-Apr-20 12:28N 39°27' W 000°19'0 0.0
2017-Apr-20 11:58N 39°27' W 000°19'0 0.0
2017-Apr-20 11:25N 39°27' W 000°19'0 0.0
2017-Apr-20 10:58N 39°27' W 000°19'0 0.0
2017-Apr-20 10:28N 39°27' W 000°19'0 0.0
2017-Apr-20 09:57N 39°27' W 000°19'0 0.0
2017-Apr-20 09:00N 39°27' W 000°19'0 0.0
2017-Apr-20 08:24N 39°27' W 000°19'0 0.0
2017-Apr-20 07:00N 39°27' W 000°19'0 0.0
2017-Apr-20 06:12N 39°27' W 000°19'0 0.0
2017-Apr-20 06:00N 39°27' W 000°19'0 0.0
2017-Apr-20 05:30N 39°27' W 000°19'0 0.0
2017-Apr-20 04:42N 39°27' W 000°19'0 0.1
2017-Apr-20 04:30N 39°27' W 000°19'0 0.0
2017-Apr-20 04:00N 39°27' W 000°19'0 0.0
2017-Apr-20 03:30N 39°27' W 000°19'0 0.0
2017-Apr-20 03:00N 39°27' W 000°19'0 0.3
2017-Apr-20 02:30N 39°27' W 000°19'0 0.3
2017-Apr-20 02:00N 39°27' W 000°19'0 0.0
2017-Apr-20 01:30N 39°27' W 000°19'0 0.0
2017-Apr-20 01:00N 39°27' W 000°19'0 0.0
2017-Apr-20 00:27N 39°27' W 000°19'0 0.0
2017-Apr-19 23:48N 39°27' W 000°19'0 0.0
2017-Apr-19 23:21N 39°27' W 000°19'0 0.0
2017-Apr-19 23:00N 39°27' W 000°19'0 0.0
2017-Apr-19 22:27N 39°27' W 000°19'0 0.0
2017-Apr-19 21:48N 39°27' W 000°19'0 0.0
2017-Apr-19 20:18N 39°27' W 000°19'0 0.0
2017-Apr-19 19:54N 39°27' W 000°19'0 0.0
2017-Apr-19 19:30N 39°27' W 000°19'0 0.0
2017-Apr-19 19:00N 39°27' W 000°19'0 0.1
2017-Apr-19 18:31N 39°27' W 000°19'1 1.8
2017-Apr-19 18:00N 39°26' W 000°18'3 5.7
2017-Apr-19 17:30N 39°28' W 000°15'510.6
2017-Apr-19 17:01N 39°33' W 000°13'  
2017-Apr-13 22:23N 39°37' W 000°11'0 0.0
2017-Apr-13 21:05N 39°37' W 000°11'0 0.0
2017-Apr-13 19:32N 39°37' W 000°11'0 0.0
2017-Apr-13 19:17N 39°37' W 000°11'  

Dump ship's entire track history